createdAt,value
2023-05-20T00:01:49.216Z,62.06
2023-05-20T00:04:16.199Z,60.75
2023-05-20T00:06:42.984Z,61.46
2023-05-20T00:09:09.992Z,62.15
2023-05-20T00:11:36.880Z,62.11
2023-05-20T00:14:03.539Z,61.73
2023-05-20T00:16:30.315Z,61.77
2023-05-20T00:18:57.454Z,62.50
2023-05-20T00:21:24.129Z,61.33
2023-05-20T00:23:51.051Z,61.47
2023-05-20T00:26:17.731Z,61.33
2023-05-20T00:28:44.534Z,62.46
2023-05-20T00:31:11.159Z,61.88
2023-05-20T00:33:37.899Z,62.88
2023-05-20T00:36:04.947Z,62.06
2023-05-20T00:38:31.650Z,62.75
2023-05-20T00:40:58.304Z,62.76
2023-05-20T00:43:26.568Z,63.05
2023-05-20T00:45:53.996Z,62.83
2023-05-20T00:48:21.807Z,63.05
2023-05-20T00:50:49.921Z,64.28
2023-05-20T00:53:18.741Z,64.20
2023-05-20T00:55:45.758Z,64.20
2023-05-20T00:58:12.515Z,64.73
2023-05-20T01:00:39.328Z,65.40
2023-05-20T01:03:06.343Z,65.84
2023-05-20T01:05:33.576Z,67.13
2023-05-20T01:08:00.855Z,67.16
2023-05-20T01:10:30.482Z,67.12
2023-05-20T01:13:01.830Z,67.90
2023-05-20T01:15:30.278Z,67.96
2023-05-20T01:18:01.944Z,69.04
2023-05-20T01:20:32.607Z,69.74
2023-05-20T01:22:59.815Z,68.95
2023-05-20T01:25:26.599Z,68.43
2023-05-20T01:27:55.900Z,67.88
2023-05-20T01:30:22.720Z,68.27
2023-05-20T01:32:55.081Z,67.89
2023-05-20T01:35:23.133Z,67.63
2023-05-20T01:37:52.367Z,67.84
2023-05-20T01:40:19.772Z,67.42
2023-05-20T01:42:46.761Z,68.27
2023-05-20T01:45:13.460Z,68.41
2023-05-20T01:47:40.118Z,68.76
2023-05-20T01:50:07.419Z,68.92
2023-05-20T01:52:34.025Z,68.24
2023-05-20T01:55:00.753Z,67.99
2023-05-20T01:57:27.395Z,68.57
2023-05-20T01:59:54.132Z,69.55
2023-05-20T02:02:21.018Z,69.87
2023-05-20T02:04:50.457Z,70.25
2023-05-20T02:07:20.866Z,71.29
2023-05-20T02:09:47.751Z,71.79
2023-05-20T02:12:17.370Z,72.40
2023-05-20T02:14:45.452Z,73.38
2023-05-20T02:17:14.593Z,74.25
2023-05-20T02:19:41.395Z,74.89
2023-05-20T02:22:08.184Z,75.62
2023-05-20T02:24:34.834Z,76.88
2023-05-20T02:27:03.252Z,77.34
2023-05-20T02:29:29.988Z,78.45
2023-05-20T02:31:56.646Z,78.79
2023-05-20T02:34:23.491Z,79.35
2023-05-20T02:36:50.170Z,79.78
2023-05-20T02:39:17.025Z,80.09
2023-05-20T02:41:43.676Z,80.40
2023-05-20T02:44:10.408Z,81.39
2023-05-20T02:46:37.096Z,81.99
2023-05-20T02:49:04.045Z,82.37
2023-05-20T02:51:32.124Z,82.82
2023-05-20T02:53:58.969Z,83.22
2023-05-20T02:56:27.132Z,82.87
2023-05-20T02:58:53.758Z,81.70
2023-05-20T03:01:20.393Z,82.00
2023-05-20T03:03:47.145Z,82.83
2023-05-20T03:06:13.817Z,81.79
2023-05-20T03:08:42.787Z,83.15
2023-05-20T03:11:09.674Z,84.19
2023-05-20T03:13:36.426Z,84.35
2023-05-20T03:16:03.298Z,84.35
2023-05-20T03:18:30.012Z,83.41
2023-05-20T03:20:56.882Z,83.54
2023-05-20T03:23:23.568Z,83.73
2023-05-20T03:25:50.385Z,83.86
2023-05-20T03:28:17.081Z,83.87
2023-05-20T03:30:43.774Z,83.77
2023-05-20T03:33:10.737Z,84.02
2023-05-20T03:35:37.704Z,84.48
2023-05-20T03:38:04.501Z,85.21
2023-05-20T03:40:31.126Z,84.60
2023-05-20T03:42:57.807Z,85.51
2023-05-20T03:45:24.584Z,85.44
2023-05-20T03:47:51.907Z,85.70
2023-05-20T03:50:18.664Z,85.82
2023-05-20T03:52:45.416Z,85.54
2023-05-20T03:55:12.330Z,85.60
2023-05-20T03:57:39.007Z,85.20
2023-05-20T04:00:11.261Z,85.31
2023-05-20T04:02:38.641Z,85.93
2023-05-20T04:05:06.081Z,85.16
2023-05-20T04:07:32.838Z,84.85
2023-05-20T04:09:59.615Z,84.22
2023-05-20T04:12:30.683Z,84.16
2023-05-20T04:15:03.760Z,84.50
2023-05-20T04:17:31.586Z,84.21
2023-05-20T04:19:59.716Z,84.07
2023-05-20T04:22:27.226Z,83.66
2023-05-20T04:24:54.021Z,83.41
2023-05-20T04:27:21.626Z,82.58
2023-05-20T04:29:48.448Z,83.15
2023-05-20T04:32:18.745Z,83.11
2023-05-20T04:34:46.417Z,83.47
2023-05-20T04:37:13.959Z,83.06
2023-05-20T04:39:40.658Z,81.40
2023-05-20T04:42:07.390Z,82.23
2023-05-20T04:44:34.629Z,81.47
2023-05-20T04:47:01.532Z,82.48
2023-05-20T04:49:31.226Z,81.53
2023-05-20T04:51:58.662Z,80.22
2023-05-20T04:54:25.384Z,78.98
2023-05-20T04:56:52.280Z,80.50
2023-05-20T04:59:18.951Z,80.58
2023-05-20T05:01:45.729Z,81.97
2023-05-20T05:04:12.386Z,80.62
2023-05-20T05:06:39.239Z,80.71
2023-05-20T05:09:05.948Z,79.93
2023-05-20T05:11:32.614Z,80.12
2023-05-20T05:13:59.462Z,81.01
2023-05-20T05:16:26.354Z,81.64
2023-05-20T05:18:53.102Z,82.49
2023-05-20T05:21:19.724Z,82.86
2023-05-20T05:23:46.354Z,82.14
2023-05-20T05:26:12.972Z,78.54
2023-05-20T05:28:42.996Z,79.10
2023-05-20T05:31:09.785Z,78.34
2023-05-20T05:33:36.501Z,77.29
2023-05-20T05:36:04.974Z,77.07
2023-05-20T05:38:31.666Z,77.63
2023-05-20T05:40:58.341Z,74.16
2023-05-20T05:43:25.223Z,72.30
2023-05-20T05:45:52.272Z,70.69
2023-05-20T05:48:18.900Z,71.03
2023-05-20T05:50:46.577Z,70.45
2023-05-20T05:53:13.338Z,69.58
2023-05-20T05:55:40.155Z,68.70
2023-05-20T05:58:06.910Z,69.17
2023-05-20T06:00:33.627Z,66.33
2023-05-20T06:03:00.498Z,65.79
2023-05-20T06:05:29.242Z,60.34
2023-05-20T06:07:56.620Z,60.55
2023-05-20T06:10:23.469Z,56.65
2023-05-20T06:12:50.159Z,60.76
2023-05-20T06:15:16.837Z,57.23
2023-05-20T06:17:43.499Z,54.14
2023-05-20T06:20:10.708Z,54.75
2023-05-20T06:22:37.450Z,55.10
2023-05-20T06:25:04.468Z,52.32
2023-05-20T06:27:31.226Z,56.47
2023-05-20T06:29:57.811Z,54.22
2023-05-20T06:32:24.675Z,51.15
2023-05-20T06:34:51.482Z,52.94
2023-05-20T06:37:18.181Z,52.44
2023-05-20T06:39:46.828Z,53.32
2023-05-20T06:42:13.464Z,53.03
2023-05-20T06:44:40.079Z,51.84
2023-05-20T06:47:06.694Z,51.15
2023-05-20T06:49:33.356Z,48.90
2023-05-20T06:52:00.001Z,49.66
2023-05-20T06:54:26.638Z,49.19
2023-05-20T06:56:53.310Z,47.01
2023-05-20T06:59:19.896Z,49.79
2023-05-20T07:01:46.540Z,51.75
2023-05-20T07:04:13.333Z,49.43
2023-05-20T07:06:40.154Z,48.45
2023-05-20T07:09:07.057Z,49.81
2023-05-20T07:11:33.717Z,49.58
2023-05-20T07:14:00.490Z,49.20
2023-05-20T07:16:27.227Z,50.46
2023-05-20T07:18:53.921Z,50.67
2023-05-20T07:21:20.675Z,49.21
2023-05-20T07:23:47.379Z,51.04
2023-05-20T07:26:14.021Z,51.49
2023-05-20T07:28:40.670Z,51.56
2023-05-20T07:31:07.307Z,52.44
2023-05-20T07:33:33.935Z,52.46
2023-05-20T07:36:00.708Z,53.67
2023-05-20T07:38:27.326Z,53.84
2023-05-20T07:40:53.966Z,53.60
2023-05-20T07:43:20.710Z,53.64
2023-05-20T07:45:47.502Z,54.69
2023-05-20T07:48:14.351Z,54.93
2023-05-20T07:50:41.121Z,53.89
2023-05-20T07:53:07.966Z,55.00
2023-05-20T07:55:37.027Z,53.77
2023-05-20T07:58:04.240Z,54.21
2023-05-20T08:00:31.596Z,54.69
2023-05-20T08:02:58.368Z,55.87
2023-05-20T08:05:25.157Z,57.08
2023-05-20T08:07:51.812Z,58.20
2023-05-20T08:10:18.502Z,59.33
2023-05-20T08:12:47.132Z,60.85
2023-05-20T08:15:13.921Z,59.80
2023-05-20T08:17:40.676Z,58.78
2023-05-20T08:20:12.792Z,55.71
2023-05-20T08:22:39.451Z,57.76
2023-05-20T08:27:36.364Z,57.14
2023-05-20T08:30:04.722Z,55.83
2023-05-20T08:32:31.775Z,53.96
2023-05-20T08:35:01.722Z,55.90
2023-05-20T08:37:29.214Z,56.86
2023-05-20T08:39:56.510Z,56.47
2023-05-20T08:42:24.562Z,54.83
2023-05-20T08:44:52.947Z,56.73
2023-05-20T08:47:23.183Z,58.82
2023-05-20T08:49:50.210Z,56.50
2023-05-20T08:52:21.660Z,57.16
2023-05-20T08:54:50.052Z,54.24
2023-05-20T08:57:16.942Z,54.21
2023-05-20T08:59:45.043Z,55.44
2023-05-20T09:02:11.823Z,55.01
2023-05-20T09:04:38.720Z,55.74
2023-05-20T09:07:05.583Z,56.13
2023-05-20T09:09:34.207Z,56.59
2023-05-20T09:12:03.239Z,58.45
2023-05-20T09:14:31.089Z,58.65
2023-05-20T09:16:57.892Z,60.27
2023-05-20T09:19:25.019Z,60.61
2023-05-20T09:21:54.198Z,62.24
2023-05-20T09:24:24.352Z,61.78
2023-05-20T09:26:51.569Z,62.56
2023-05-20T09:29:21.712Z,66.45
2023-05-20T09:31:49.462Z,64.48
2023-05-20T09:34:17.263Z,65.62
2023-05-20T09:36:45.325Z,65.96
2023-05-20T09:39:18.921Z,65.84
2023-05-20T09:41:57.682Z,66.09
2023-05-20T09:44:24.908Z,68.67
2023-05-20T09:46:53.348Z,68.83
2023-05-20T09:49:22.588Z,67.85
2023-05-20T09:51:50.766Z,67.55
2023-05-20T09:54:22.531Z,68.29
2023-05-20T09:56:49.667Z,67.61
2023-05-20T09:59:17.381Z,65.42
2023-05-20T10:01:45.508Z,66.04
2023-05-20T10:04:16.657Z,66.46
2023-05-20T10:07:30.596Z,66.35
2023-05-20T10:10:08.893Z,64.71
2023-05-20T10:13:12.362Z,64.58
2023-05-20T10:15:53.885Z,65.70
2023-05-20T10:18:41.980Z,64.52
2023-05-20T10:21:22.522Z,62.83
2023-05-20T10:23:49.213Z,62.20
2023-05-20T10:26:15.797Z,60.10
2023-05-20T10:28:43.153Z,59.09
2023-05-20T10:31:18.446Z,57.02
2023-05-20T10:33:46.506Z,59.02
2023-05-20T10:36:45.552Z,55.90
2023-05-20T10:39:17.516Z,56.79
2023-05-20T10:41:44.327Z,55.36
2023-05-20T10:44:11.008Z,54.15
2023-05-20T10:46:48.756Z,51.90
2023-05-20T10:49:27.498Z,52.52
2023-05-20T10:51:55.680Z,53.24
2023-05-20T10:54:23.289Z,53.64
2023-05-20T10:56:54.015Z,52.89
2023-05-20T10:59:21.951Z,55.98
2023-05-20T11:01:49.424Z,54.63
2023-05-20T11:04:17.558Z,55.23
2023-05-20T11:06:54.321Z,55.41
2023-05-20T11:09:21.415Z,55.93
2023-05-20T11:11:48.131Z,56.79
2023-05-20T11:14:15.247Z,57.17
2023-05-20T11:16:42.840Z,61.36
2023-05-20T11:19:15.123Z,60.76
2023-05-20T11:21:46.341Z,58.16
2023-05-20T11:24:13.603Z,60.45
2023-05-20T11:26:41.123Z,62.25
2023-05-20T11:29:07.928Z,59.50
2023-05-20T11:31:34.592Z,59.75
2023-05-20T11:34:02.455Z,59.39
2023-05-20T11:36:30.480Z,60.28
2023-05-20T11:38:58.863Z,55.52
2023-05-20T11:41:26.333Z,54.04
2023-05-20T11:43:59.898Z,56.66
2023-05-20T11:46:27.648Z,55.71
2023-05-20T11:48:55.176Z,54.41
2023-05-20T11:51:28.257Z,53.83
2023-05-20T11:54:01.512Z,53.73
2023-05-20T11:56:33.406Z,52.31
2023-05-20T11:59:01.540Z,52.52
2023-05-20T12:01:30.948Z,52.27
2023-05-20T12:03:57.892Z,51.94
2023-05-20T12:06:24.705Z,49.40
2023-05-20T12:08:51.341Z,49.59
2023-05-20T12:11:18.252Z,48.13
2023-05-20T12:13:44.877Z,47.14
2023-05-20T12:16:11.638Z,48.23
2023-05-20T12:18:38.351Z,46.28
2023-05-20T12:21:04.948Z,49.34
2023-05-20T12:23:34.168Z,49.21
2023-05-20T12:26:01.200Z,48.83
2023-05-20T12:28:27.987Z,48.24
2023-05-20T12:30:54.728Z,46.99
2023-05-20T12:33:21.320Z,47.30
2023-05-20T12:35:47.980Z,47.10
2023-05-20T12:38:14.825Z,48.02
2023-05-20T12:40:41.497Z,47.74
2023-05-20T12:43:08.192Z,47.43
2023-05-20T12:45:35.202Z,49.43
2023-05-20T12:48:02.290Z,47.19
2023-05-20T12:50:29.004Z,47.18
2023-05-20T12:52:56.043Z,48.10
2023-05-20T12:55:22.876Z,47.81
2023-05-20T12:57:50.475Z,46.67
2023-05-20T13:00:17.529Z,47.86
2023-05-20T13:02:44.471Z,48.07
2023-05-20T13:05:11.593Z,46.65
2023-05-20T13:07:38.805Z,47.12
2023-05-20T13:10:07.174Z,48.29
2023-05-20T13:12:35.020Z,47.26
2023-05-20T13:15:01.844Z,48.00
2023-05-20T13:17:28.499Z,48.10
2023-05-20T13:19:55.724Z,46.48
2023-05-20T13:22:23.029Z,47.48
2023-05-20T13:24:49.821Z,47.29
2023-05-20T13:27:16.432Z,47.43
2023-05-20T13:29:43.809Z,48.06
2023-05-20T13:32:10.697Z,48.26
2023-05-20T13:34:38.727Z,48.00
2023-05-20T13:37:06.205Z,47.56
2023-05-20T13:39:33.111Z,48.54
2023-05-20T13:41:59.917Z,48.00
2023-05-20T13:44:26.757Z,47.75
2023-05-20T13:46:53.517Z,46.87
2023-05-20T13:49:21.259Z,47.54
2023-05-20T13:51:48.036Z,47.38
2023-05-20T13:54:14.831Z,48.07
2023-05-20T13:56:41.827Z,48.70
2023-05-20T13:59:08.524Z,48.57
2023-05-20T14:01:35.615Z,48.74
2023-05-20T14:04:02.414Z,48.97
2023-05-20T14:06:29.567Z,49.60
2023-05-20T14:08:57.007Z,49.84
2023-05-20T14:11:23.818Z,49.36
2023-05-20T14:13:50.456Z,50.52
2023-05-20T14:16:17.229Z,51.09
2023-05-20T14:18:44.014Z,50.89
2023-05-20T14:21:12.105Z,51.71
2023-05-20T14:23:41.197Z,50.97
2023-05-20T14:26:07.871Z,50.18
2023-05-20T14:28:34.644Z,50.31
2023-05-20T14:31:02.467Z,50.38
2023-05-20T14:33:29.073Z,49.89
2023-05-20T14:35:55.744Z,50.59
2023-05-20T14:38:22.524Z,51.36
2023-05-20T14:40:49.232Z,53.72
2023-05-20T14:43:16.421Z,53.97
2023-05-20T14:45:43.162Z,55.17
2023-05-20T14:48:10.822Z,55.87
2023-05-20T14:50:37.557Z,56.15
2023-05-20T14:53:04.351Z,56.07
2023-05-20T14:55:31.009Z,56.87
2023-05-20T14:57:57.886Z,56.22
2023-05-20T15:00:24.538Z,56.13
2023-05-20T15:02:51.294Z,57.27
2023-05-20T15:05:18.212Z,54.15
2023-05-20T15:07:46.715Z,54.49
2023-05-20T15:10:13.586Z,55.83
2023-05-20T15:12:40.467Z,57.15
2023-05-20T15:15:07.445Z,57.49
2023-05-20T15:17:34.086Z,57.83
2023-05-20T15:20:00.805Z,58.66
2023-05-20T15:22:27.493Z,59.68
2023-05-20T15:24:54.144Z,61.49
2023-05-20T15:27:21.084Z,62.63
2023-05-20T15:29:48.711Z,62.38
2023-05-20T15:32:15.716Z,63.15
2023-05-20T15:34:42.349Z,64.35
2023-05-20T15:37:09.031Z,64.34
2023-05-20T15:39:38.557Z,64.27
2023-05-20T15:42:06.534Z,63.85
2023-05-20T15:44:33.644Z,64.17
2023-05-20T15:47:00.324Z,63.49
2023-05-20T15:49:27.031Z,64.07
2023-05-20T15:52:03.134Z,64.67
2023-05-20T15:54:31.003Z,64.85
2023-05-20T15:56:58.127Z,64.61
2023-05-20T15:59:24.813Z,64.56
2023-05-20T16:01:51.504Z,63.91
2023-05-20T16:04:19.072Z,63.39
2023-05-20T16:06:46.028Z,63.27
2023-05-20T16:09:12.612Z,64.13
2023-05-20T16:11:39.230Z,63.82
2023-05-20T16:14:05.868Z,65.28
2023-05-20T16:16:35.751Z,65.69
2023-05-20T16:19:02.863Z,64.84
2023-05-20T16:21:29.548Z,64.80
2023-05-20T16:23:56.218Z,65.40
2023-05-20T16:26:23.161Z,65.68
2023-05-20T16:28:49.797Z,66.36
2023-05-20T16:31:16.796Z,68.11
2023-05-20T16:33:43.560Z,69.58
2023-05-20T16:36:10.211Z,69.23
2023-05-20T16:38:36.944Z,68.70
2023-05-20T16:41:03.611Z,69.12
2023-05-20T16:43:30.413Z,69.83
2023-05-20T16:45:57.169Z,69.68
2023-05-20T16:48:24.087Z,69.27
2023-05-20T16:50:50.651Z,70.29
2023-05-20T16:53:17.257Z,70.17
2023-05-20T16:55:43.909Z,69.48
2023-05-20T16:58:10.625Z,67.65
2023-05-20T17:00:37.242Z,68.06
2023-05-20T17:03:04.513Z,67.97
2023-05-20T17:05:31.503Z,68.28
2023-05-20T17:08:00.383Z,68.04
2023-05-20T17:10:28.939Z,66.56
2023-05-20T17:12:55.871Z,67.48
2023-05-20T17:15:23.624Z,67.12
2023-05-20T17:17:50.792Z,65.55
2023-05-20T17:20:17.776Z,66.64
2023-05-20T17:22:44.468Z,67.11
2023-05-20T17:25:11.350Z,66.51
2023-05-20T17:27:38.114Z,67.88
2023-05-20T17:30:05.694Z,67.49
2023-05-20T17:32:32.409Z,66.72
2023-05-20T17:34:59.224Z,66.30
2023-05-20T17:37:26.164Z,67.29
2023-05-20T17:39:52.866Z,66.69
2023-05-20T17:42:19.486Z,67.42
2023-05-20T17:44:47.122Z,66.42
2023-05-20T17:47:13.839Z,68.21
2023-05-20T17:49:40.670Z,68.73
2023-05-20T17:52:07.566Z,68.02
2023-05-20T17:54:34.255Z,67.32
2023-05-20T17:57:00.851Z,67.42
2023-05-20T17:59:27.469Z,67.92
2023-05-20T18:01:54.155Z,68.05
2023-05-20T18:04:21.933Z,67.51
2023-05-20T18:06:48.572Z,68.18
2023-05-20T18:09:15.291Z,68.15
2023-05-20T18:11:42.147Z,68.90
2023-05-20T18:14:08.772Z,68.16
2023-05-20T18:16:35.455Z,68.93
2023-05-20T18:19:03.018Z,68.44
2023-05-20T18:21:29.887Z,67.98
2023-05-20T18:23:56.598Z,66.96
2023-05-20T18:26:23.225Z,67.04
2023-05-20T18:28:52.556Z,66.06
2023-05-20T18:31:19.249Z,65.68
2023-05-20T18:33:46.059Z,66.30
2023-05-20T18:36:13.115Z,65.97
2023-05-20T18:38:41.525Z,66.87
2023-05-20T18:41:09.048Z,67.03
2023-05-20T18:43:35.733Z,67.29
2023-05-20T18:46:02.489Z,67.34
2023-05-20T18:48:29.234Z,67.26
2023-05-20T18:50:56.328Z,66.23
2023-05-20T18:53:23.690Z,66.32
2023-05-20T18:55:50.795Z,66.56
2023-05-20T18:58:17.459Z,65.51
2023-05-20T19:00:44.175Z,64.39
2023-05-20T19:03:11.668Z,64.58
2023-05-20T19:05:38.730Z,63.91
2023-05-20T19:08:06.072Z,64.15
2023-05-20T19:10:32.988Z,63.94
2023-05-20T19:12:59.822Z,63.83
2023-05-20T19:15:26.704Z,63.59
2023-05-20T19:17:53.467Z,63.10
2023-05-20T19:20:20.565Z,62.52
2023-05-20T19:22:47.551Z,63.43
2023-05-20T19:25:14.368Z,63.90
2023-05-20T19:27:41.382Z,63.17
2023-05-20T19:30:10.721Z,63.82
2023-05-20T19:32:38.654Z,62.48
2023-05-20T19:35:06.398Z,64.20
2023-05-20T19:37:33.375Z,64.58
2023-05-20T19:40:00.396Z,64.86
2023-05-20T19:42:27.130Z,65.06
2023-05-20T19:44:54.430Z,66.42
2023-05-20T19:47:21.653Z,66.37
2023-05-20T19:49:48.464Z,66.34
2023-05-20T19:52:15.309Z,65.39
2023-05-20T19:54:43.025Z,66.29
2023-05-20T19:57:09.937Z,66.00
2023-05-20T19:59:38.125Z,65.84
2023-05-20T20:02:06.153Z,66.51
2023-05-20T20:04:33.174Z,65.68
2023-05-20T20:07:00.256Z,65.86
2023-05-20T20:09:27.956Z,66.48
2023-05-20T20:11:54.939Z,66.42
2023-05-20T20:14:21.758Z,67.51
2023-05-20T20:16:49.106Z,67.23
2023-05-20T20:19:22.855Z,68.62
2023-05-20T20:21:53.119Z,68.10
2023-05-20T20:24:20.228Z,66.97
2023-05-20T20:26:47.528Z,65.62
2023-05-20T20:29:14.869Z,65.37
2023-05-20T20:31:41.755Z,65.64
2023-05-20T20:34:08.621Z,66.31
2023-05-20T20:36:35.191Z,66.05
2023-05-20T20:39:05.050Z,65.67
2023-05-20T20:41:32.362Z,66.23
2023-05-20T20:43:59.733Z,65.50
2023-05-20T20:46:29.280Z,65.85
2023-05-20T20:48:56.220Z,65.26
2023-05-20T20:51:22.942Z,64.25
2023-05-20T20:53:49.991Z,63.29
2023-05-20T20:56:17.645Z,63.62
2023-05-20T20:58:45.014Z,63.78
2023-05-20T21:01:12.289Z,62.88
2023-05-20T21:03:40.422Z,63.12
2023-05-20T21:06:07.949Z,62.97
2023-05-20T21:08:34.857Z,63.73
2023-05-20T21:11:01.657Z,63.52
2023-05-20T21:13:31.133Z,61.73
2023-05-20T21:15:57.758Z,61.01
2023-05-20T21:18:24.592Z,60.97
2023-05-20T21:20:52.692Z,61.54
2023-05-20T21:23:20.332Z,63.51
2023-05-20T21:25:47.826Z,63.65
2023-05-20T21:28:15.009Z,63.71
2023-05-20T21:30:41.641Z,64.95
2023-05-20T21:33:08.394Z,65.06
2023-05-20T21:35:35.336Z,65.77
2023-05-20T21:38:02.158Z,65.08
2023-05-20T21:40:28.861Z,64.92
2023-05-20T21:42:55.518Z,65.30
2023-05-20T21:45:22.172Z,65.59
2023-05-20T21:47:48.939Z,65.04
2023-05-20T21:50:15.724Z,62.61
2023-05-20T21:52:43.083Z,63.18
2023-05-20T21:55:10.681Z,64.75
2023-05-20T21:57:37.961Z,64.15
2023-05-20T22:00:15.718Z,63.68
2023-05-20T22:02:42.463Z,63.83
2023-05-20T22:05:09.632Z,64.60
2023-05-20T22:07:36.597Z,65.31
2023-05-20T22:10:03.722Z,65.12
2023-05-20T22:12:30.828Z,65.48
2023-05-20T22:14:57.487Z,64.91
2023-05-20T22:17:25.037Z,64.85
2023-05-20T22:19:51.889Z,64.65
2023-05-20T22:22:18.517Z,65.71
2023-05-20T22:24:45.184Z,64.91
2023-05-20T22:27:12.161Z,65.79
2023-05-20T22:29:38.795Z,66.06
2023-05-20T22:32:05.713Z,65.80
2023-05-20T22:34:32.345Z,65.78
2023-05-20T22:36:58.952Z,65.82
2023-05-20T22:39:25.724Z,65.42
2023-05-20T22:41:52.386Z,64.99
2023-05-20T22:44:18.982Z,64.36
2023-05-20T22:46:46.208Z,63.83
2023-05-20T22:49:13.062Z,64.33
2023-05-20T22:51:39.728Z,64.22
2023-05-20T22:54:07.113Z,64.31
2023-05-20T22:56:34.317Z,64.71
2023-05-20T22:59:01.301Z,64.75
2023-05-20T23:01:28.184Z,64.53
2023-05-20T23:03:55.241Z,65.01
2023-05-20T23:06:22.681Z,64.53
2023-05-20T23:08:49.570Z,64.65
2023-05-20T23:11:16.377Z,64.58
2023-05-20T23:13:43.139Z,64.03
2023-05-20T23:16:10.287Z,64.72
2023-05-20T23:18:37.032Z,63.62
2023-05-20T23:21:04.219Z,63.11
2023-05-20T23:23:32.008Z,63.02
2023-05-20T23:25:59.750Z,63.84
2023-05-20T23:28:26.525Z,64.29
2023-05-20T23:30:53.248Z,64.24
2023-05-20T23:33:24.664Z,64.64
2023-05-20T23:35:51.989Z,64.21
2023-05-20T23:38:18.744Z,64.32
2023-05-20T23:40:45.359Z,64.40
2023-05-20T23:43:12.089Z,64.78
2023-05-20T23:45:38.826Z,65.15
2023-05-20T23:48:07.128Z,66.23
2023-05-20T23:50:33.863Z,65.85
2023-05-20T23:53:00.514Z,65.43
2023-05-20T23:55:28.482Z,65.35
2023-05-20T23:57:55.120Z,65.39
